createdAt,value
2018-06-11T00:01:39.277Z,98.07
2018-06-11T00:04:07.805Z,103.80
2018-06-11T00:06:36.289Z,99.90
2018-06-11T00:09:07.896Z,73.73
2018-06-11T00:11:36.780Z,95.90
2018-06-11T00:14:06.212Z,99.83
2018-06-11T00:16:35.148Z,114.23
2018-06-11T00:19:03.889Z,119.80
2018-06-11T00:21:32.631Z,111.70
2018-06-11T00:24:00.838Z,126.87
2018-06-11T00:26:29.407Z,105.60
2018-06-11T00:28:57.929Z,121.23
2018-06-11T00:31:26.473Z,102.10
2018-06-11T00:33:55.194Z,110.17
2018-06-11T00:36:23.725Z,101.70
2018-06-11T00:38:52.285Z,92.40
2018-06-11T00:41:20.826Z,88.07
2018-06-11T00:43:49.330Z,92.37
2018-06-11T00:46:17.811Z,94.60
2018-06-11T00:48:46.435Z,112.27
2018-06-11T00:51:14.946Z,96.30
2018-06-11T00:53:44.089Z,90.33
2018-06-11T00:56:12.762Z,103.77
2018-06-11T00:58:41.494Z,97.00
2018-06-11T01:01:10.047Z,95.97
2018-06-11T01:03:38.549Z,90.37
2018-06-11T01:06:07.094Z,102.13
2018-06-11T01:08:35.626Z,98.27
2018-06-11T01:11:04.241Z,99.00
2018-06-11T01:13:32.720Z,79.90
2018-06-11T01:16:01.267Z,83.17
2018-06-11T01:18:29.866Z,86.77
2018-06-11T01:20:58.430Z,100.67
2018-06-11T01:23:26.933Z,95.13
2018-06-11T01:25:55.457Z,109.20
2018-06-11T01:28:24.007Z,103.77
2018-06-11T01:30:52.516Z,113.20
2018-06-11T01:33:21.037Z,114.87
2018-06-11T01:35:49.673Z,116.73
2018-06-11T01:38:18.169Z,63.33
2018-06-11T01:40:46.735Z,83.37
2018-06-11T01:43:15.227Z,72.00
2018-06-11T01:45:43.755Z,101.03
2018-06-11T01:48:12.290Z,110.90
2018-06-11T01:50:40.793Z,139.80
2018-06-11T01:53:09.335Z,142.00
2018-06-11T01:55:37.825Z,173.40
2018-06-11T01:58:06.072Z,173.73
2018-06-11T02:00:34.585Z,173.40
2018-06-11T02:03:02.768Z,170.03
2018-06-11T02:05:31.317Z,168.57
2018-06-11T02:07:59.808Z,168.27
2018-06-11T02:10:28.345Z,169.80
2018-06-11T02:12:56.945Z,188.77
2018-06-11T02:15:25.689Z,172.57
2018-06-11T02:17:54.234Z,159.83
2018-06-11T02:20:22.736Z,174.33
2018-06-11T02:22:51.253Z,167.20
2018-06-11T02:25:19.741Z,161.57
2018-06-11T02:27:48.285Z,149.20
2018-06-11T02:30:16.629Z,150.37
2018-06-11T02:32:45.148Z,136.60
2018-06-11T02:35:13.660Z,172.37
2018-06-11T02:37:42.261Z,159.30
2018-06-11T02:40:10.764Z,162.00
2018-06-11T02:42:39.273Z,154.87
2018-06-11T02:45:07.806Z,159.73
2018-06-11T02:47:36.510Z,150.50
2018-06-11T02:50:05.965Z,122.30
2018-06-11T02:52:34.654Z,122.53
2018-06-11T02:55:03.193Z,139.77
2018-06-11T02:57:31.732Z,133.97
2018-06-11T03:00:06.603Z,152.27
2018-06-11T03:02:35.123Z,108.80
2018-06-11T03:05:03.390Z,131.37
2018-06-11T03:07:31.949Z,127.00
2018-06-11T03:10:00.546Z,124.80
2018-06-11T03:12:29.104Z,128.37
2018-06-11T03:14:58.040Z,132.20
2018-06-11T03:17:26.548Z,160.00
2018-06-11T03:19:55.102Z,164.40
2018-06-11T03:22:23.640Z,150.57
2018-06-11T03:24:52.269Z,136.57
2018-06-11T03:27:20.844Z,127.97
2018-06-11T03:29:49.570Z,131.17
2018-06-11T03:32:18.120Z,146.37
2018-06-11T03:34:46.625Z,144.07
2018-06-11T03:37:15.164Z,136.30
2018-06-11T03:39:43.714Z,128.67
2018-06-11T03:42:12.303Z,133.23
2018-06-11T03:44:40.868Z,128.17
2018-06-11T03:47:09.468Z,137.73
2018-06-11T03:49:38.042Z,107.27
2018-06-11T03:52:06.820Z,142.73
2018-06-11T03:54:35.610Z,129.97
2018-06-11T03:57:04.230Z,152.47
2018-06-11T03:59:32.754Z,122.37
2018-06-11T04:02:01.379Z,124.53
2018-06-11T04:04:29.908Z,112.80
2018-06-11T04:06:58.436Z,122.70
2018-06-11T04:09:27.027Z,129.07
2018-06-11T04:12:00.079Z,126.50
2018-06-11T04:14:28.616Z,124.33
2018-06-11T04:16:57.437Z,130.10
2018-06-11T04:19:26.010Z,127.73
2018-06-11T04:21:54.582Z,148.10
2018-06-11T04:24:23.108Z,128.07
2018-06-11T04:26:51.713Z,146.03
2018-06-11T04:29:20.304Z,154.00
2018-06-11T04:31:48.857Z,150.67
2018-06-11T04:34:17.398Z,146.00
2018-06-11T04:36:45.914Z,146.67
2018-06-11T04:39:14.445Z,158.63
2018-06-11T04:41:42.944Z,150.90
2018-06-11T04:44:11.517Z,130.70
2018-06-11T04:46:40.058Z,125.50
2018-06-11T04:49:08.590Z,133.90
2018-06-11T04:51:37.721Z,128.10
2018-06-11T04:54:06.460Z,106.80
2018-06-11T04:56:35.009Z,109.03
2018-06-11T04:59:03.520Z,108.63
2018-06-11T05:01:32.101Z,81.00
2018-06-11T05:04:00.825Z,65.43
2018-06-11T05:06:29.377Z,54.50
2018-06-11T05:08:57.934Z,77.57
2018-06-11T05:11:26.837Z,76.83
2018-06-11T05:13:55.080Z,84.93
2018-06-11T05:16:23.579Z,83.37
2018-06-11T05:18:52.185Z,64.33
2018-06-11T05:21:21.946Z,70.27
2018-06-11T05:23:50.691Z,60.10
2018-06-11T05:26:19.306Z,56.33
2018-06-11T05:28:47.920Z,61.83
2018-06-11T05:31:16.430Z,44.27
2018-06-11T05:33:45.025Z,45.73
2018-06-11T05:36:13.321Z,41.57
2018-06-11T05:38:41.915Z,35.07
2018-06-11T05:41:10.467Z,35.87
2018-06-11T05:43:38.795Z,36.93
2018-06-11T05:46:07.319Z,34.07
2018-06-11T05:48:35.941Z,32.67
2018-06-11T05:51:04.498Z,32.17
2018-06-11T05:53:33.098Z,44.20
2018-06-11T05:56:01.707Z,32.17
2018-06-11T05:58:30.322Z,42.07
2018-06-11T06:00:58.911Z,31.10
2018-06-11T06:03:27.453Z,33.17
2018-06-11T06:05:56.101Z,33.07
2018-06-11T06:08:24.373Z,30.03
2018-06-11T06:10:53.041Z,29.73
2018-06-11T06:13:21.640Z,33.97
2018-06-11T06:15:50.135Z,37.20
2018-06-11T06:18:18.662Z,39.13
2018-06-11T06:20:47.165Z,50.37
2018-06-11T06:23:15.779Z,61.50
2018-06-11T06:25:44.306Z,59.63
2018-06-11T06:28:12.899Z,65.10
2018-06-11T06:30:41.421Z,57.37
2018-06-11T06:33:10.030Z,45.43
2018-06-11T06:35:38.511Z,46.30
2018-06-11T06:38:07.332Z,46.53
2018-06-11T06:40:36.011Z,42.77
2018-06-11T06:43:04.598Z,43.63
2018-06-11T06:45:33.201Z,43.37
2018-06-11T06:48:01.746Z,37.03
2018-06-11T06:50:30.281Z,59.87
2018-06-11T06:52:59.042Z,59.07
2018-06-11T06:55:27.604Z,58.97
2018-06-11T06:57:56.186Z,84.97
2018-06-11T07:00:24.726Z,74.27
2018-06-11T07:02:53.607Z,88.87
2018-06-11T07:05:22.115Z,84.40
2018-06-11T07:07:50.352Z,106.47
2018-06-11T07:10:18.916Z,113.03
2018-06-11T07:12:47.467Z,117.87
2018-06-11T07:15:16.034Z,158.10
2018-06-11T07:17:44.550Z,111.63
2018-06-11T07:20:13.082Z,129.90
2018-06-11T07:22:41.758Z,139.47
2018-06-11T07:25:10.377Z,127.47
2018-06-11T07:27:38.589Z,100.27
2018-06-11T07:30:07.217Z,139.70
2018-06-11T07:32:35.813Z,104.67
2018-06-11T07:35:04.362Z,123.20
2018-06-11T07:37:32.935Z,101.23
2018-06-11T07:40:01.423Z,67.17
2018-06-11T07:42:29.961Z,132.80
2018-06-11T07:44:58.193Z,122.97
2018-06-11T07:47:26.682Z,92.93
2018-06-11T07:49:55.217Z,108.47
2018-06-11T07:52:23.730Z,90.87
2018-06-11T07:54:52.232Z,94.40
2018-06-11T07:57:20.785Z,115.77
2018-06-11T07:59:49.330Z,82.93
2018-06-11T08:02:17.866Z,73.77
2018-06-11T08:04:46.405Z,78.43
2018-06-11T08:07:14.914Z,83.47
2018-06-11T08:09:49.638Z,81.83
2018-06-11T08:12:18.186Z,90.73
2018-06-11T08:14:46.748Z,123.37
2018-06-11T08:17:15.289Z,96.87
2018-06-11T08:19:43.894Z,142.33
2018-06-11T08:22:12.452Z,140.60
2018-06-11T08:24:40.958Z,137.73
2018-06-11T08:27:09.487Z,92.83
2018-06-11T08:29:38.070Z,135.50
2018-06-11T08:32:06.789Z,128.87
2018-06-11T08:34:35.414Z,123.83
2018-06-11T08:37:03.995Z,82.07
2018-06-11T08:39:32.509Z,104.70
2018-06-11T08:42:01.067Z,114.07
2018-06-11T08:44:29.627Z,103.03
2018-06-11T08:46:58.200Z,121.20
2018-06-11T08:49:26.856Z,103.80
2018-06-11T08:51:55.425Z,106.47
2018-06-11T08:54:24.081Z,94.27
2018-06-11T08:56:52.638Z,72.03
2018-06-11T08:59:21.149Z,119.40
2018-06-11T09:01:51.194Z,104.23
2018-06-11T09:04:19.795Z,106.97
2018-06-11T09:06:48.372Z,93.37
2018-06-11T09:09:17.514Z,82.47
2018-06-11T09:11:46.190Z,107.43
2018-06-11T09:14:14.727Z,90.37
2018-06-11T09:16:43.306Z,101.80
2018-06-11T09:19:11.893Z,87.00
2018-06-11T09:21:40.556Z,89.80
2018-06-11T09:24:09.479Z,80.07
2018-06-11T09:26:38.524Z,67.40
2018-06-11T09:29:07.152Z,51.63
2018-06-11T09:31:35.692Z,87.13
2018-06-11T09:34:04.285Z,59.10
2018-06-11T09:36:32.825Z,68.07
2018-06-11T09:39:01.338Z,97.43
2018-06-11T09:41:29.932Z,115.80
2018-06-11T09:43:58.534Z,141.03
2018-06-11T09:46:27.004Z,101.37
2018-06-11T09:48:55.513Z,97.50
2018-06-11T09:51:24.046Z,125.73
2018-06-11T09:53:52.610Z,142.70
2018-06-11T09:56:21.148Z,122.40
2018-06-11T09:58:49.656Z,115.77
2018-06-11T10:01:18.211Z,149.63
2018-06-11T10:03:46.824Z,111.27
2018-06-11T10:06:15.390Z,106.87
2018-06-11T10:08:44.091Z,110.47
2018-06-11T10:11:12.657Z,92.13
2018-06-11T10:13:41.234Z,101.13
2018-06-11T10:16:09.760Z,113.20
2018-06-11T10:18:38.290Z,113.03
2018-06-11T10:21:07.813Z,114.00
2018-06-11T10:23:36.381Z,124.87
2018-06-11T10:26:04.898Z,131.30
2018-06-11T10:28:33.427Z,120.73
2018-06-11T10:31:01.997Z,108.13
2018-06-11T10:33:30.519Z,109.60
2018-06-11T10:35:59.065Z,96.47
2018-06-11T10:38:27.592Z,86.83
2018-06-11T10:40:56.131Z,82.00
2018-06-11T10:43:24.759Z,84.93
2018-06-11T10:45:53.315Z,86.27
2018-06-11T10:48:21.935Z,89.50
2018-06-11T10:50:50.441Z,89.97
2018-06-11T10:53:18.957Z,92.03
2018-06-11T10:55:47.574Z,82.17
2018-06-11T10:58:16.096Z,81.60
2018-06-11T11:00:44.915Z,80.63
2018-06-11T11:03:13.472Z,85.60
2018-06-11T11:05:42.019Z,73.87
2018-06-11T11:08:10.525Z,77.40
2018-06-11T11:10:39.108Z,81.73
2018-06-11T11:13:07.645Z,82.63
2018-06-11T11:15:36.221Z,78.77
2018-06-11T11:18:04.856Z,81.43
2018-06-11T11:20:33.510Z,82.73
2018-06-11T11:23:02.292Z,84.43
2018-06-11T11:25:30.886Z,88.43
2018-06-11T11:27:59.889Z,93.20
2018-06-11T11:30:28.467Z,87.03
2018-06-11T11:32:57.036Z,89.40
2018-06-11T11:35:25.565Z,79.87
2018-06-11T11:37:54.158Z,76.33
2018-06-11T11:40:22.668Z,80.40
2018-06-11T11:42:50.916Z,80.33
2018-06-11T11:45:19.492Z,76.90
2018-06-11T11:47:48.018Z,78.90
2018-06-11T11:50:16.644Z,60.93
2018-06-11T11:52:45.188Z,58.37
2018-06-11T11:55:13.689Z,70.90
2018-06-11T11:57:42.285Z,80.60
2018-06-11T12:00:10.974Z,76.97
2018-06-11T12:02:39.598Z,75.00
2018-06-11T12:05:08.348Z,74.87
2018-06-11T12:07:36.983Z,74.03
2018-06-11T12:10:05.558Z,80.53
2018-06-11T12:12:34.143Z,53.70
2018-06-11T12:15:02.762Z,59.43
2018-06-11T12:17:31.269Z,65.37
2018-06-11T12:19:59.817Z,74.20
2018-06-11T12:22:28.007Z,50.57
2018-06-11T12:24:56.561Z,52.67
2018-06-11T12:27:24.764Z,72.13
2018-06-11T12:29:53.309Z,57.87
2018-06-11T12:32:21.834Z,65.33
2018-06-11T12:34:51.309Z,58.43
2018-06-11T12:37:19.552Z,74.83
2018-06-11T12:39:48.195Z,63.17
2018-06-11T12:42:16.750Z,50.40
2018-06-11T12:44:45.277Z,108.70
2018-06-11T12:47:13.842Z,104.67
2018-06-11T12:49:42.389Z,74.43
2018-06-11T12:52:10.935Z,32.40
2018-06-11T12:54:39.454Z,31.30
2018-06-11T12:57:08.598Z,81.37
2018-06-11T12:59:37.111Z,54.80
2018-06-11T13:02:05.890Z,35.97
2018-06-11T13:04:34.431Z,13.50
2018-06-11T13:07:02.982Z,19.17
2018-06-11T13:09:31.501Z,15.23
2018-06-11T13:12:00.061Z,11.83
2018-06-11T13:14:28.560Z,18.70
2018-06-11T13:16:57.101Z,11.70
2018-06-11T13:19:25.635Z,17.60
2018-06-11T13:21:54.229Z,40.50
2018-06-11T13:24:22.729Z,61.40
2018-06-11T13:26:51.290Z,58.93
2018-06-11T13:29:19.520Z,33.20
2018-06-11T13:31:48.690Z,20.47
2018-06-11T13:34:17.284Z,24.13
2018-06-11T13:36:45.801Z,33.03
2018-06-11T13:39:14.330Z,45.00
2018-06-11T13:41:42.881Z,23.53
2018-06-11T13:44:11.417Z,24.23
2018-06-11T13:46:39.986Z,34.23
2018-06-11T13:49:08.520Z,16.20
2018-06-11T13:51:37.057Z,17.13
2018-06-11T13:54:06.035Z,9.97
2018-06-11T13:56:34.558Z,10.73
2018-06-11T13:59:03.170Z,10.93
2018-06-11T14:01:31.759Z,11.10
2018-06-11T14:04:00.288Z,11.83
2018-06-11T14:06:28.833Z,12.93
2018-06-11T14:08:57.341Z,11.70
2018-06-11T14:11:26.041Z,16.17
2018-06-11T14:13:56.397Z,20.13
2018-06-11T14:16:25.011Z,25.07
2018-06-11T14:18:53.195Z,33.13
2018-06-11T14:21:21.738Z,23.87
2018-06-11T14:23:50.224Z,19.43
2018-06-11T14:26:18.789Z,20.27
2018-06-11T14:28:47.321Z,13.83
2018-06-11T14:31:15.832Z,13.13
2018-06-11T14:33:44.368Z,13.20
2018-06-11T14:36:12.885Z,12.60
2018-06-11T14:38:42.010Z,12.70
2018-06-11T14:41:10.583Z,13.00
2018-06-11T14:43:40.849Z,12.50
2018-06-11T14:46:09.462Z,12.10
2018-06-11T14:48:37.975Z,14.17
2018-06-11T14:51:08.345Z,18.87
2018-06-11T14:53:40.773Z,22.90
2018-06-11T14:56:15.286Z,18.30
2018-06-11T14:58:46.303Z,17.10
2018-06-11T15:01:17.711Z,16.33
2018-06-11T15:03:50.037Z,16.13
2018-06-11T15:06:21.943Z,18.43
2018-06-11T15:08:56.777Z,15.73
2018-06-11T15:11:25.677Z,14.67
2018-06-11T15:13:54.231Z,19.60
2018-06-11T15:16:22.811Z,25.53
2018-06-11T15:18:51.386Z,34.60
2018-06-11T15:21:21.436Z,25.03
2018-06-11T15:23:50.009Z,21.40
2018-06-11T15:26:18.618Z,18.20
2018-06-11T15:28:47.202Z,14.37
2018-06-11T15:31:15.745Z,18.23
2018-06-11T15:33:44.531Z,15.20
2018-06-11T15:36:13.170Z,13.87
2018-06-11T15:38:42.026Z,13.50
2018-06-11T15:41:10.554Z,13.87
2018-06-11T15:43:41.338Z,17.87
2018-06-11T15:46:10.077Z,20.10
2018-06-11T15:48:38.567Z,15.63
2018-06-11T15:51:07.677Z,22.30
2018-06-11T15:53:36.688Z,37.10
2018-06-11T15:56:05.739Z,45.20
2018-06-11T15:58:34.224Z,44.07
2018-06-11T16:01:05.245Z,19.27
2018-06-11T16:03:33.919Z,16.77
2018-06-11T16:06:02.461Z,28.60
2018-06-11T16:08:30.933Z,70.17
2018-06-11T16:10:59.219Z,89.47
2018-06-11T16:13:27.748Z,81.37
2018-06-11T16:15:56.294Z,57.57
2018-06-11T16:18:24.869Z,12.63
2018-06-11T16:20:53.402Z,11.10
2018-06-11T16:23:21.915Z,12.10
2018-06-11T16:25:50.426Z,14.13
2018-06-11T16:28:18.953Z,16.97
2018-06-11T16:30:50.340Z,20.47
2018-06-11T16:33:18.666Z,20.13
2018-06-11T16:35:47.229Z,17.60
2018-06-11T16:38:15.778Z,18.33
2018-06-11T16:40:44.326Z,19.07
2018-06-11T16:43:12.814Z,23.20
2018-06-11T16:45:41.350Z,26.37
2018-06-11T16:48:09.897Z,26.33
2018-06-11T16:50:38.380Z,30.30
2018-06-11T16:53:06.958Z,20.00
2018-06-11T16:55:35.879Z,19.27
2018-06-11T16:58:04.616Z,18.70
2018-06-11T17:00:35.232Z,17.27
2018-06-11T17:03:05.078Z,17.13
2018-06-11T17:05:35.208Z,22.53
2018-06-11T17:08:04.993Z,29.23
2018-06-11T17:10:35.073Z,34.83
2018-06-11T17:13:03.729Z,32.17
2018-06-11T17:15:35.938Z,27.07
2018-06-11T17:18:04.450Z,20.67
2018-06-11T17:20:32.940Z,14.40
2018-06-11T17:23:01.491Z,12.20
2018-06-11T17:25:30.276Z,12.47
2018-06-11T17:27:58.876Z,13.97
2018-06-11T17:30:27.373Z,16.93
2018-06-11T17:32:55.918Z,10.40
2018-06-11T17:35:24.393Z,12.57
2018-06-11T17:37:52.894Z,23.00
2018-06-11T17:40:21.425Z,15.47
2018-06-11T17:42:49.925Z,37.37
2018-06-11T17:45:18.447Z,57.03
2018-06-11T17:47:46.947Z,94.63
2018-06-11T17:50:15.611Z,134.80
2018-06-11T17:52:44.135Z,134.53
2018-06-11T17:55:17.334Z,138.90
2018-06-11T17:57:46.126Z,139.10
2018-06-11T18:00:17.058Z,110.37
2018-06-11T18:02:45.568Z,90.13
2018-06-11T18:05:14.109Z,87.27
2018-06-11T18:07:42.616Z,92.07
2018-06-11T18:10:11.128Z,96.63
2018-06-11T18:12:39.713Z,102.63
2018-06-11T18:15:07.903Z,115.70
2018-06-11T18:17:36.515Z,133.47
2018-06-11T18:20:05.209Z,142.60
2018-06-11T18:22:33.773Z,138.43
2018-06-11T18:25:02.381Z,107.07
2018-06-11T18:27:32.494Z,70.13
2018-06-11T18:30:01.191Z,65.13
2018-06-11T18:32:30.171Z,58.13
2018-06-11T18:34:58.723Z,64.40
2018-06-11T18:37:27.235Z,57.37
2018-06-11T18:39:56.469Z,64.40
2018-06-11T18:42:25.225Z,64.67
2018-06-11T18:44:53.677Z,67.60
2018-06-11T18:47:22.255Z,63.30
2018-06-11T18:49:50.753Z,57.37
2018-06-11T18:52:19.268Z,58.03
2018-06-11T18:54:48.451Z,58.73
2018-06-11T18:57:16.992Z,57.87
2018-06-11T18:59:46.427Z,55.53
2018-06-11T19:02:16.559Z,50.77
2018-06-11T19:04:47.083Z,47.10
2018-06-11T19:07:18.357Z,48.07
2018-06-11T19:09:49.136Z,41.37
2018-06-11T19:12:21.155Z,37.70
2018-06-11T19:14:51.975Z,32.70
2018-06-11T19:17:23.584Z,31.90
2018-06-11T19:19:54.038Z,34.67
2018-06-11T19:22:22.637Z,33.27
2018-06-11T19:24:51.336Z,31.40
2018-06-11T19:27:19.900Z,29.37
2018-06-11T19:29:48.418Z,33.07
2018-06-11T19:32:16.942Z,32.43
2018-06-11T19:34:45.425Z,32.93
2018-06-11T19:37:13.652Z,33.90
2018-06-11T19:39:42.173Z,29.97
2018-06-11T19:42:10.365Z,33.37
2018-06-11T19:44:38.986Z,33.93
2018-06-11T19:47:07.584Z,35.60
2018-06-11T19:49:36.077Z,36.07
2018-06-11T19:52:04.613Z,35.00
2018-06-11T19:54:33.126Z,38.93
2018-06-11T19:57:01.677Z,43.83
2018-06-11T19:59:30.169Z,38.90
2018-06-11T20:01:58.914Z,38.73
2018-06-11T20:04:27.430Z,43.90
2018-06-11T20:06:55.961Z,42.87
2018-06-11T20:09:24.558Z,36.07
2018-06-11T20:11:53.042Z,41.30
2018-06-11T20:14:24.861Z,36.43
2018-06-11T20:16:53.351Z,36.13
2018-06-11T20:19:21.885Z,36.23
2018-06-11T20:21:50.444Z,38.30
2018-06-11T20:24:18.958Z,34.83
2018-06-11T20:26:47.498Z,33.50
2018-06-11T20:29:17.437Z,36.10
2018-06-11T20:31:45.676Z,31.37
2018-06-11T20:34:14.155Z,32.93
2018-06-11T20:36:42.656Z,34.03
2018-06-11T20:39:11.346Z,44.47
2018-06-11T20:41:39.835Z,41.40
2018-06-11T20:44:08.404Z,45.53
2018-06-11T20:46:36.971Z,42.83
2018-06-11T20:49:05.715Z,33.93
2018-06-11T20:51:33.950Z,31.60
2018-06-11T20:54:02.503Z,39.33
2018-06-11T20:56:31.016Z,37.77
2018-06-11T20:58:59.541Z,34.83
2018-06-11T21:01:27.731Z,31.07
2018-06-11T21:03:56.274Z,30.50
2018-06-11T21:06:24.769Z,29.20
2018-06-11T21:08:53.277Z,37.53
2018-06-11T21:11:21.852Z,29.97
2018-06-11T21:13:50.381Z,38.47
2018-06-11T21:16:18.928Z,34.93
2018-06-11T21:18:47.408Z,38.23
2018-06-11T21:21:15.902Z,39.80
2018-06-11T21:23:44.418Z,37.10
2018-06-11T21:26:12.949Z,38.97
2018-06-11T21:28:41.497Z,37.27
2018-06-11T21:31:10.000Z,38.07
2018-06-11T21:33:40.029Z,36.93
2018-06-11T21:36:08.589Z,38.70
2018-06-11T21:38:37.084Z,35.37
2018-06-11T21:41:05.604Z,35.67
2018-06-11T21:43:34.145Z,38.03
2018-06-11T21:46:04.067Z,38.10
2018-06-11T21:48:32.625Z,40.97
2018-06-11T21:51:02.525Z,44.47
2018-06-11T21:53:30.784Z,45.70
2018-06-11T21:55:59.545Z,44.47
2018-06-11T21:58:28.373Z,40.03
2018-06-11T22:00:56.908Z,39.93
2018-06-11T22:03:25.525Z,41.50
2018-06-11T22:05:55.914Z,44.77
2018-06-11T22:08:24.975Z,38.17
2018-06-11T22:10:53.818Z,39.47
2018-06-11T22:13:23.074Z,41.77
2018-06-11T22:15:51.567Z,40.20
2018-06-11T22:18:21.190Z,40.87
2018-06-11T22:20:50.069Z,42.57
2018-06-11T22:23:20.462Z,42.10
2018-06-11T22:25:49.173Z,41.00
2018-06-11T22:28:17.731Z,44.43
2018-06-11T22:30:46.262Z,43.33
2018-06-11T22:33:14.787Z,40.40
2018-06-11T22:35:43.269Z,38.70
2018-06-11T22:38:11.867Z,36.33
2018-06-11T22:40:40.552Z,37.60
2018-06-11T22:43:09.040Z,36.40
2018-06-11T22:45:37.601Z,40.17
2018-06-11T22:48:06.095Z,40.67
2018-06-11T22:50:34.615Z,39.37
2018-06-11T22:53:03.151Z,41.17
2018-06-11T22:55:31.701Z,39.77
2018-06-11T22:58:00.204Z,42.80
2018-06-11T23:00:32.634Z,41.20
2018-06-11T23:03:01.498Z,40.03
2018-06-11T23:05:30.134Z,42.37
2018-06-11T23:07:58.359Z,43.50
2018-06-11T23:10:26.884Z,40.57
2018-06-11T23:12:56.062Z,41.07
2018-06-11T23:15:24.598Z,42.43
2018-06-11T23:17:53.099Z,42.30
2018-06-11T23:20:21.658Z,44.27
2018-06-11T23:22:50.154Z,42.87
2018-06-11T23:25:18.694Z,45.60
2018-06-11T23:27:49.684Z,42.40
2018-06-11T23:30:20.478Z,40.13
2018-06-11T23:32:49.029Z,39.27
2018-06-11T23:35:18.494Z,44.87
2018-06-11T23:37:48.051Z,41.80
2018-06-11T23:40:16.517Z,42.23
2018-06-11T23:42:45.005Z,42.50
2018-06-11T23:45:13.554Z,43.53
2018-06-11T23:47:42.741Z,48.77
2018-06-11T23:50:11.399Z,43.33
2018-06-11T23:52:39.912Z,43.27
2018-06-11T23:55:08.448Z,44.40
2018-06-11T23:57:37.826Z,42.60
